Time;durP1;ratioP1;P1;durP2;ratioP2;P2;SDS_P1;SDS_P2;PMS_P1;PMS_P2;Temp;Humidity;BMP_temperature;BMP_pressure;BME280_temperature;BME280_humidity;BME280_pressure;Samples;Min_cycle;Max_cycle;Signal;HPM_P1;HPM_P2
2023/12/04 05:22:58;;;;;;;15.35;7.20;;;-8.10;99.90;;;;;;7617133;19;20377;-69
2023/12/04 05:25:31;;;;;;;17.65;8.07;;;-9.40;99.90;;;;;;7615463;19;20014;-72
2023/12/04 05:28:12;;;;;;;16.88;8.18;;;-9.30;99.90;;;;;;7620611;19;20018;-69
2023/12/04 05:30:44;;;;;;;18.00;8.38;;;-9.20;99.90;;;;;;7606364;19;20530;-72
2023/12/04 05:33:17;;;;;;;20.23;7.85;;;-9.10;99.90;;;;;;7614108;19;20019;-69
2023/12/04 05:35:51;;;;;;;16.15;7.35;;;-9.10;99.90;;;;;;7616178;19;20065;-71
2023/12/04 05:38:23;;;;;;;15.80;7.65;;;-9.10;99.90;;;;;;7604851;19;20014;-70
2023/12/04 05:40:56;;;;;;;14.07;7.00;;;-9.00;99.90;;;;;;7594964;19;20440;-71
2023/12/04 05:43:28;;;;;;;17.63;7.03;;;-8.90;99.90;;;;;;7605740;19;20334;-71
2023/12/04 05:46:00;;;;;;;14.07;7.30;;;-8.70;99.90;;;;;;7609511;19;20045;-70
2023/12/04 05:48:33;;;;;;;19.25;7.68;;;-8.70;99.90;;;;;;7612133;19;24897;-70
2023/12/04 05:51:05;;;;;;;14.00;6.85;;;-8.60;99.90;;;;;;7621974;19;20018;-71
2023/12/04 05:53:37;;;;;;;13.43;6.47;;;-8.60;99.90;;;;;;7598010;19;20018;-69
2023/12/04 05:56:10;;;;;;;17.20;6.73;;;-8.50;99.90;;;;;;7608874;19;20048;-70
2023/12/04 05:58:43;;;;;;;14.13;6.80;;;-8.50;99.90;;;;;;7609735;19;20112;-70
2023/12/04 06:01:16;;;;;;;16.20;7.70;;;-8.50;99.90;;;;;;7609008;19;20010;-70
2023/12/04 06:03:49;;;;;;;15.32;7.05;;;-8.40;99.90;;;;;;7601422;19;20014;-69
2023/12/04 06:06:21;;;;;;;14.63;7.80;;;-8.40;99.90;;;;;;7586795;19;20018;-69
2023/12/04 06:08:53;;;;;;;15.20;7.10;;;-8.40;99.90;;;;;;7608090;19;20006;-70
2023/12/04 06:11:26;;;;;;;13.57;6.65;;;-8.40;99.90;;;;;;7591040;19;20725;-69
2023/12/04 06:13:58;;;;;;;14.68;7.13;;;-8.40;99.90;;;;;;7598963;19;20484;-70
2023/12/04 06:16:30;;;;;;;13.97;6.50;;;-8.30;99.90;;;;;;7586528;19;20014;-70
2023/12/04 06:19:04;;;;;;;15.32;7.30;;;-8.30;99.90;;;;;;7606821;19;20021;-69
2023/12/04 06:21:36;;;;;;;17.15;7.25;;;-8.20;99.90;;;;;;7612627;19;20018;-69
2023/12/04 06:24:09;;;;;;;14.13;6.32;;;-8.20;99.90;;;;;;7596274;19;20018;-70
2023/12/04 06:26:43;;;;;;;15.05;6.78;;;-8.20;99.90;;;;;;7606431;19;20182;-72
2023/12/04 06:29:16;;;;;;;13.82;6.68;;;-8.10;99.90;;;;;;7607247;19;20011;-69
2023/12/04 06:31:49;;;;;;;13.35;6.82;;;-8.20;99.90;;;;;;7575382;19;20044;-68
2023/12/04 06:34:22;;;;;;;11.25;5.75;;;-8.20;99.90;;;;;;7566305;19;20044;-69
2023/12/04 06:36:55;;;;;;;13.70;6.50;;;-8.10;99.90;;;;;;7580421;19;20021;-70
2023/12/04 06:39:32;;;;;;;13.82;6.82;;;-8.00;99.90;;;;;;7590525;19;20029;-70
2023/12/04 06:42:06;;;;;;;18.17;7.60;;;-8.00;99.90;;;;;;7582857;19;20014;-70
2023/12/04 06:44:39;;;;;;;13.95;6.50;;;-8.00;99.90;;;;;;7597930;19;20015;-71
2023/12/04 06:47:17;;;;;;;13.50;6.57;;;-8.00;99.90;;;;;;7594166;19;20094;-71
2023/12/04 06:49:49;;;;;;;14.20;6.97;;;-8.00;99.90;;;;;;7598263;19;20014;-70
2023/12/04 06:52:21;;;;;;;16.10;7.00;;;-7.90;99.90;;;;;;7600615;19;20011;-69
2023/12/04 06:54:53;;;;;;;15.40;6.97;;;-7.90;99.90;;;;;;7601955;19;20097;-69
2023/12/04 06:57:26;;;;;;;14.23;6.40;;;-8.00;99.90;;;;;;7607688;19;20646;-70
2023/12/04 06:59:58;;;;;;;15.60;7.10;;;-8.00;99.90;;;;;;7592847;19;20018;-69
2023/12/04 07:02:31;;;;;;;12.63;7.13;;;-8.00;99.90;;;;;;7603018;19;20018;-70
2023/12/04 07:05:04;;;;;;;17.38;7.70;;;-7.90;99.90;;;;;;7583769;19;20089;-69
2023/12/04 07:07:36;;;;;;;17.33;8.55;;;-8.00;99.90;;;;;;7603540;19;20022;-70
2023/12/04 07:10:08;;;;;;;16.10;7.50;;;-7.90;99.90;;;;;;7591949;19;21204;-71
2023/12/04 07:12:42;;;;;;;21.97;7.53;;;-7.80;99.90;;;;;;7598804;19;20468;-71
2023/12/04 07:15:14;;;;;;;13.60;7.15;;;-7.90;99.90;;;;;;7595858;19;20086;-70
2023/12/04 07:17:46;;;;;;;11.18;6.13;;;-7.90;99.90;;;;;;7597431;19;20492;-70
2023/12/04 07:20:19;;;;;;;14.83;7.10;;;-7.80;99.90;;;;;;7601506;19;20051;-69
2023/12/04 07:22:51;;;;;;;15.65;7.45;;;-7.80;99.90;;;;;;7597778;19;20038;-70
2023/12/04 07:25:24;;;;;;;18.58;7.97;;;-7.80;99.90;;;;;;7590557;19;20114;-70
2023/12/04 07:27:57;;;;;;;19.15;9.05;;;-7.70;99.90;;;;;;7598452;19;20018;-70
2023/12/04 07:30:30;;;;;;;18.35;8.60;;;-7.60;99.90;;;;;;7582239;19;20110;-70
2023/12/04 07:33:02;;;;;;;21.17;9.23;;;-7.70;99.90;;;;;;7593084;19;20019;-70
2023/12/04 07:35:36;;;;;;;24.60;10.15;;;-7.70;99.90;;;;;;7606161;19;20018;-71
2023/12/04 07:38:08;;;;;;;23.20;9.98;;;-7.70;99.90;;;;;;7603670;19;20019;-71
2023/12/04 07:40:40;;;;;;;24.00;10.57;;;-7.60;99.90;;;;;;7603227;19;20045;-68
2023/12/04 07:43:14;;;;;;;26.90;10.23;;;-7.60;99.90;;;;;;7601470;19;20629;-69
2023/12/04 07:45:47;;;;;;;26.02;12.05;;;-7.50;99.90;;;;;;7597342;19;20045;-68
2023/12/04 07:48:19;;;;;;;18.20;9.07;;;-7.50;99.90;;;;;;7597645;19;20034;-68
2023/12/04 07:50:51;;;;;;;19.23;9.98;;;-7.50;99.90;;;;;;7598431;19;20670;-68
2023/12/04 07:53:24;;;;;;;29.38;10.65;;;-7.50;99.90;;;;;;7577814;19;20105;-68
2023/12/04 07:55:57;;;;;;;20.50;10.63;;;-7.40;99.90;;;;;;7600824;19;20105;-72
2023/12/04 07:58:30;;;;;;;20.67;9.20;;;-7.40;99.90;;;;;;7585479;19;20522;-69
2023/12/04 08:01:02;;;;;;;;;;;-7.30;99.90;;;;;;7596177;19;20018;-68
2023/12/04 08:03:34;;;;;;;19.67;8.70;;;-7.20;99.90;;;;;;7586576;19;20376;-68
2023/12/04 08:06:07;;;;;;;23.70;10.23;;;-7.10;99.90;;;;;;7589615;19;20046;-69
2023/12/04 14:49:14;;;;;;;49.67;26.23;;;-3.30;99.90;;;;;;7589517;19;20385;-71
2023/12/04 14:51:48;;;;;;;57.72;25.60;;;-3.40;99.90;;;;;;7575637;19;20014;-68
2023/12/04 14:54:21;;;;;;;52.10;26.77;;;-3.40;99.90;;;;;;7585384;19;20105;-69
2023/12/04 15:05:56;;;;;;;54.42;29.90;;;-3.40;99.90;;;;;;7602726;19;20033;-68
2023/12/04 15:20:20;;;;;;;48.78;25.58;;;-3.30;99.90;;;;;;7618175;19;20398;-69
2023/12/04 15:22:54;;;;;;;54.33;28.73;;;-3.40;99.90;;;;;;7605478;19;20055;-69
2023/12/04 15:25:30;;;;;;;60.42;31.77;;;-3.40;99.90;;;;;;7611142;19;20025;-69
2023/12/04 15:28:07;;;;;;;62.65;33.30;;;-3.40;99.90;;;;;;7608384;19;21554;-70
2023/12/04 15:30:43;;;;;;;73.15;32.75;;;-3.40;99.90;;;;;;7613862;19;20041;-69
2023/12/04 15:33:15;;;;;;;68.82;33.28;;;-3.40;99.90;;;;;;7617373;19;20018;-69
2023/12/04 15:35:48;;;;;;;;;;;-3.50;99.90;;;;;;7614352;19;20063;-70
2023/12/04 15:38:24;;;;;;;53.28;27.52;;;-3.50;99.90;;;;;;7625703;19;20472;-70
2023/12/04 15:41:09;;;;;;;56.28;28.92;;;-3.50;99.90;;;;;;7617929;19;20018;-70
2023/12/04 15:43:44;;;;;;;54.25;28.25;;;-3.50;99.90;;;;;;7606632;19;20018;-70
2023/12/04 15:46:22;;;;;;;52.67;27.65;;;-3.50;99.90;;;;;;7635277;19;20021;-70
2023/12/04 15:48:54;;;;;;;62.35;30.27;;;-3.50;99.90;;;;;;7615942;19;20041;-69
2023/12/04 15:51:27;;;;;;;53.30;29.45;;;-3.50;99.90;;;;;;7608417;19;20018;-70
2023/12/04 15:54:04;;;;;;;62.03;30.10;;;-3.50;99.90;;;;;;7631009;19;20025;-69
2023/12/04 15:56:36;;;;;;;;;;;-3.50;99.90;;;;;;7608066;19;20018;-70
2023/12/04 15:59:09;;;;;;;77.82;34.20;;;-3.50;99.90;;;;;;7598455;19;19927;-69
2023/12/04 16:01:41;;;;;;;72.32;35.40;;;-3.50;99.90;;;;;;7568785;19;20014;-70
2023/12/04 16:04:14;;;;;;;75.67;37.93;;;-3.50;99.90;;;;;;7567386;19;20015;-69
2023/12/04 16:06:49;;;;;;;65.97;34.13;;;-3.50;99.90;;;;;;7577225;19;20325;-71
2023/12/04 16:09:22;;;;;;;71.10;34.10;;;-3.60;99.90;;;;;;7581573;19;21261;-70
2023/12/04 16:11:54;;;;;;;64.65;32.42;;;-3.60;99.90;;;;;;7576979;19;20013;-70
2023/12/04 16:14:27;;;;;;;71.15;34.33;;;-3.50;99.90;;;;;;7599237;19;20014;-69
2023/12/04 16:16:59;;;;;;;66.22;33.78;;;-3.50;99.90;;;;;;7576021;19;20486;-70
2023/12/04 16:19:33;;;;;;;59.33;30.73;;;-3.50;99.90;;;;;;7582085;19;20027;-70
2023/12/04 16:22:06;;;;;;;59.08;29.92;;;-3.50;99.90;;;;;;7592074;19;20689;-70
2023/12/04 16:24:39;;;;;;;67.38;32.45;;;-3.50;99.90;;;;;;7572491;19;20078;-70
2023/12/04 16:27:12;;;;;;;57.35;29.73;;;-3.50;99.90;;;;;;7564139;19;20028;-70
2023/12/04 16:29:44;;;;;;;69.15;35.40;;;-3.50;99.90;;;;;;7568375;19;20010;-71
2023/12/04 16:32:16;;;;;;;65.68;33.05;;;-3.50;99.90;;;;;;7573082;19;20019;-70
2023/12/04 16:34:48;;;;;;;61.92;31.60;;;-3.60;99.90;;;;;;7588467;19;21047;-71
2023/12/04 16:37:24;;;;;;;66.38;34.28;;;-3.60;99.90;;;;;;7593194;19;20074;-69
2023/12/04 16:39:59;;;;;;;66.05;33.45;;;-3.60;99.90;;;;;;7574899;19;20650;-68
2023/12/04 16:42:32;;;;;;;66.37;33.63;;;-3.60;99.90;;;;;;7579753;19;20044;-70
2023/12/04 16:45:08;;;;;;;69.50;35.05;;;-3.60;99.90;;;;;;7593409;19;20010;-69
2023/12/04 16:47:40;;;;;;;72.78;36.95;;;-3.60;99.90;;;;;;7524832;19;20052;-69
2023/12/04 16:50:18;;;;;;;81.78;40.00;;;-3.60;99.90;;;;;;7542519;19;20010;-70
2023/12/04 16:52:53;;;;;;;83.97;40.38;;;-3.60;99.90;;;;;;7566153;19;21162;-70
2023/12/04 16:55:29;;;;;;;80.60;41.13;;;-3.70;99.90;;;;;;7586135;19;20014;-71
2023/12/04 16:58:04;;;;;;;83.55;40.67;;;-3.60;99.90;;;;;;7563645;19;21382;-68
2023/12/04 17:00:40;;;;;;;83.78;42.10;;;-3.70;99.90;;;;;;7566869;19;20010;-69
2023/12/04 17:03:14;;;;;;;91.03;44.42;;;-3.60;99.90;;;;;;7539449;19;20011;-68
2023/12/04 17:05:46;;;;;;;77.28;40.15;;;-3.60;99.90;;;;;;7542889;19;20019;-69
2023/12/04 17:08:22;;;;;;;87.07;40.78;;;-3.70;99.90;;;;;;7561846;19;20021;-68
2023/12/04 17:10:55;;;;;;;84.63;41.07;;;-3.70;99.90;;;;;;7561826;19;20006;-69
2023/12/04 17:13:27;;;;;;;84.43;40.97;;;-3.70;99.90;;;;;;7563865;19;20022;-68
2023/12/04 17:16:00;;;;;;;76.50;37.17;;;-3.70;99.90;;;;;;7547170;19;20010;-70
2023/12/04 17:18:32;;;;;;;70.07;35.08;;;-3.70;99.90;;;;;;7550544;19;20025;-68
2023/12/04 17:21:08;;;;;;;71.32;34.28;;;-3.80;99.90;;;;;;7549457;19;20015;-69
2023/12/04 17:23:40;;;;;;;68.97;35.85;;;-3.70;99.90;;;;;;7569307;19;20022;-69
2023/12/04 17:26:13;;;;;;;69.55;34.80;;;-3.70;99.90;;;;;;7555850;19;20010;-68
2023/12/04 17:28:46;;;;;;;72.53;36.00;;;-3.70;99.90;;;;;;7552455;19;21323;-71
2023/12/04 17:31:19;;;;;;;75.72;37.28;;;-3.80;99.90;;;;;;7547335;19;21239;-68
2023/12/04 17:33:51;;;;;;;70.68;34.30;;;-3.80;99.90;;;;;;7567060;19;20014;-69
2023/12/04 17:36:25;;;;;;;70.38;35.22;;;-3.80;99.90;;;;;;7549903;19;20848;-69
2023/12/04 17:39:03;;;;;;;66.88;33.47;;;-3.90;99.90;;;;;;7551867;19;20021;-69
2023/12/04 17:41:35;;;;;;;142.73;53.72;;;-4.00;99.90;;;;;;7579096;19;20014;-69
2023/12/04 17:44:08;;;;;;;80.88;36.45;;;-3.90;99.90;;;;;;7574384;19;20512;-69
2023/12/04 17:46:46;;;;;;;152.40;63.00;;;-3.80;99.90;;;;;;7568531;19;20128;-69
2023/12/04 17:49:18;;;;;;;71.32;32.03;;;-3.70;99.90;;;;;;7583610;19;20014;-70
2023/12/04 17:51:55;;;;;;;69.32;32.20;;;-3.70;99.90;;;;;;7568708;19;20019;-68
2023/12/04 17:54:29;;;;;;;71.25;34.47;;;-3.80;99.90;;;;;;7566959;19;20020;-68
2023/12/04 17:57:01;;;;;;;62.22;29.67;;;-3.90;99.90;;;;;;7567570;19;20488;-70
2023/12/04 17:59:34;;;;;;;74.93;31.80;;;-3.80;99.90;;;;;;7576100;19;20018;-69
2023/12/04 18:02:11;;;;;;;56.22;30.05;;;-3.80;99.90;;;;;;7545772;19;20041;-68
2023/12/04 18:04:48;;;;;;;64.40;31.13;;;-3.80;99.90;;;;;;7569560;19;20022;-70
2023/12/04 18:07:20;;;;;;;52.75;26.45;;;-3.80;99.90;;;;;;7539475;19;20408;-71
2023/12/04 18:09:54;;;;;;;59.55;27.65;;;-3.70;99.90;;;;;;7550505;19;20018;-68
2023/12/04 18:12:27;;;;;;;49.75;24.77;;;-3.70;99.90;;;;;;7548655;19;21144;-69
2023/12/04 18:15:00;;;;;;;50.95;24.48;;;-3.70;99.90;;;;;;7561945;19;20388;-68
2023/12/04 18:17:41;;;;;;;46.15;22.75;;;-3.60;99.90;;;;;;7549536;19;20018;-69
2023/12/04 18:20:17;;;;;;;44.85;22.33;;;-3.60;99.90;;;;;;7567035;19;20014;-70
2023/12/04 18:22:49;;;;;;;44.70;22.63;;;-3.60;99.90;;;;;;7550846;19;20583;-67
2023/12/04 18:25:28;;;;;;;60.05;27.75;;;-3.50;99.90;;;;;;7546738;19;20011;-69
2023/12/04 18:28:01;;;;;;;63.88;28.90;;;-3.50;99.90;;;;;;7554751;19;20015;-68
2023/12/04 18:30:34;;;;;;;52.58;28.80;;;-3.50;99.90;;;;;;7580786;19;20036;-69
2023/12/04 18:33:08;;;;;;;53.55;28.25;;;-3.50;99.90;;;;;;7582936;19;20034;-70
2023/12/04 18:35:42;;;;;;;58.80;28.58;;;-3.40;99.90;;;;;;7584465;19;20048;-67
2023/12/04 18:38:29;;;;;;;49.83;27.27;;;-3.50;99.90;;;;;;7576054;19;20006;-70
2023/12/04 18:41:02;;;;;;;49.90;25.17;;;-3.50;99.90;;;;;;7554731;19;20015;-68
2023/12/04 18:43:35;;;;;;;47.78;23.98;;;-3.50;99.90;;;;;;7561268;19;20019;-69
2023/12/04 18:46:09;;;;;;;53.42;24.40;;;;;;;;;;7579508;19;20035;-67
2023/12/04 18:48:43;;;;;;;43.42;23.23;;;;;;;;;;7577571;19;20021;-68
2023/12/04 18:51:16;;;;;;;40.15;21.98;;;-3.50;99.90;;;;;;7569047;19;20007;-69
2023/12/04 18:53:49;;;;;;;41.13;22.30;;;-3.40;99.90;;;;;;7572739;19;20048;-69
2023/12/04 18:56:22;;;;;;;46.60;22.50;;;-3.40;99.90;;;;;;7558394;19;20025;-70
2023/12/04 18:58:54;;;;;;;44.37;21.50;;;-3.40;99.90;;;;;;6545985;19;10000408;-68
2023/12/04 19:01:27;;;;;;;37.28;21.67;;;-3.40;99.90;;;;;;7576419;19;20271;-68
2023/12/04 19:04:00;;;;;;;39.20;19.50;;;;;;;;;;7561695;19;20014;-68
2023/12/04 19:06:33;;;;;;;36.15;18.98;;;;;;;;;;7561135;19;21151;-68
2023/12/04 19:09:06;;;;;;;37.45;20.88;;;;;;;;;;7568088;19;20014;-68
2023/12/04 19:11:40;;;;;;;40.95;20.23;;;;;;;;;;7573725;19;20014;-68
2023/12/04 19:14:13;;;;;;;44.45;22.08;;;;;;;;;;7576707;19;20361;-69
2023/12/04 19:16:46;;;;;;;54.10;27.15;;;;;;;;;;7571834;19;20018;-69
2023/12/04 19:19:19;;;;;;;47.07;23.67;;;;;;;;;;7565477;19;20014;-69
2023/12/04 19:21:52;;;;;;;45.80;23.80;;;;;;;;;;7554779;19;20283;-68
2023/12/04 19:24:24;;;;;;;40.72;21.13;;;;;;;;;;7556519;19;20018;-67
2023/12/04 19:26:58;;;;;;;41.53;22.10;;;;;;;;;;7552476;19;20429;-68
2023/12/04 19:29:31;;;;;;;42.30;22.27;;;;;;;;;;7565543;19;20071;-68
2023/12/04 19:32:04;;;;;;;42.47;22.05;;;;;;;;;;7563387;19;20010;-67
2023/12/04 19:34:36;;;;;;;37.67;20.02;;;;;;;;;;7573281;19;20010;-68
2023/12/04 19:37:09;;;;;;;37.83;20.08;;;;;;;;;;7579127;19;20018;-68
2023/12/04 19:39:43;;;;;;;38.60;21.17;;;;;;;;;;7573434;19;20434;-68
2023/12/04 19:42:15;;;;;;;45.97;22.25;;;-3.40;99.90;;;;;;7579149;19;20014;-68
2023/12/04 19:44:49;;;;;;;46.00;21.33;;;-3.10;99.90;;;;;;7583003;19;20021;-69
2023/12/04 19:47:21;;;;;;;40.28;20.88;;;-3.10;99.90;;;;;;7584776;19;20019;-69
2023/12/04 19:49:54;;;;;;;43.70;21.25;;;-3.20;99.90;;;;;;7593242;19;20037;-70
2023/12/04 19:52:27;;;;;;;39.03;21.52;;;-3.20;99.90;;;;;;7583176;19;20883;-70
2023/12/04 19:55:00;;;;;;;;;;;-3.20;99.90;;;;;;7580200;19;20944;-68
2023/12/04 19:57:32;;;;;;;40.10;22.02;;;-3.20;99.90;;;;;;7577798;19;20001;-70
2023/12/04 20:00:06;;;;;;;45.20;23.47;;;;;;;;;;7581047;19;20014;-70
2023/12/04 20:02:46;;;;;;;46.53;23.35;;;;;;;;;;7576784;19;20018;-69
2023/12/04 20:05:19;;;;;;;47.40;23.05;;;;;;;;;;7565644;19;20122;-69
2023/12/04 20:07:52;;;;;;;47.90;24.15;;;;;;;;;;7580627;19;20010;-70
2023/12/04 20:10:25;;;;;;;45.53;25.05;;;;;;;;;;7569806;19;20007;-70
2023/12/04 20:12:59;;;;;;;46.55;24.30;;;;;;;;;;7574339;19;20010;-70
2023/12/04 20:15:32;;;;;;;50.88;25.23;;;;;;;;;;7565115;19;20029;-70
2023/12/04 20:18:05;;;;;;;41.30;23.33;;;;;;;;;;7567826;19;20060;-70
2023/12/04 20:20:38;;;;;;;42.10;21.25;;;;;;;;;;7565501;19;20148;-70
2023/12/04 20:23:11;;;;;;;37.70;20.17;;;;;;;;;;7565269;19;20014;-69
2023/12/04 20:25:44;;;;;;;41.33;21.10;;;;;;;;;;7586960;19;20034;-69
2023/12/04 20:28:20;;;;;;;42.70;20.92;;;;;;;;;;7576830;19;20360;-69
2023/12/04 20:30:53;;;;;;;38.83;19.83;;;;;;;;;;7581607;19;20014;-69
2023/12/04 20:33:25;;;;;;;41.53;21.13;;;;;;;;;;7577832;19;20022;-69
2023/12/04 20:36:04;;;;;;;39.50;20.08;;;;;;;;;;7582983;19;20014;-70
2023/12/04 20:38:37;;;;;;;36.92;20.25;;;;;;;;;;7559980;19;20093;-68
